Terminal Aerodrome Forecast
Issued by NWS Grand Forks, ND

Home | Current Version | Previous Version | Text Only | Print | Product List | Glossary Off
Versions: 1 2 3 4 5 6 7 8 9 10 11 12 13 14 15 16 17

467
FTUS43 KFGF 171129
TAFFAR
TAF
KFAR 171129Z 1712/1812 17010KT P6SM OVC090
     FM171400 20006KT P6SM OVC080
     FM171600 31007KT P6SM BKN110
     FM172100 34009KT P6SM SCT200
     FM181000 31007KT P6SM FEW200=

USA.gov is the U.S. government's official web portal to all federal, state and local government web resources and services.